Time;durP1;ratioP1;P1;durP2;ratioP2;P2;SDS_P1;SDS_P2;PMS_P1;PMS_P2;Temp;Humidity;BMP_temperature;BMP_pressure;BME280_temperature;BME280_humidity;BME280_pressure;Samples;Min_cycle;Max_cycle;Signal;HPM_P1;HPM_P2
2023/05/11 00:00:41;;;;;;;51.85;47.00;;;;;;;;;;5003756;28;20172;-58
2023/05/11 00:03:07;;;;;;;51.03;46.30;;;;;;;;;;5002902;28;20069;-57
2023/05/11 00:05:33;;;;;;;50.25;45.70;;;;;;;;;;5001526;28;20030;-59
2023/05/11 00:07:59;;;;;;;49.30;44.70;;;;;;;;;;5004174;28;20026;-60
2023/05/11 00:10:25;;;;;;;48.78;44.30;;;;;;;;;;5001990;28;20410;-58
2023/05/11 00:12:51;;;;;;;49.15;44.58;;;;;;;;;;5004024;28;20109;-56
2023/05/11 00:15:17;;;;;;;49.00;44.30;;;;;;;;;;5003347;28;20057;-60
2023/05/11 00:17:44;;;;;;;49.58;45.00;;;;;;;;;;5002717;28;20041;-55
2023/05/11 00:20:10;;;;;;;49.25;44.83;;;;;;;;;;5002472;28;20019;-60
2023/05/11 00:22:36;;;;;;;49.08;44.65;;;;;;;;;;5002380;28;20034;-57
2023/05/11 00:25:03;;;;;;;48.25;43.67;;;;;;;;;;5003539;28;20054;-59
2023/05/11 00:27:29;;;;;;;47.63;43.58;;;;;;;;;;5002387;28;20038;-57
2023/05/11 00:29:55;;;;;;;48.55;44.40;;;;;;;;;;5002583;28;20026;-56
2023/05/11 00:32:21;;;;;;;45.33;41.67;;;;;;;;;;5002791;28;20026;-57
2023/05/11 00:34:47;;;;;;;46.38;42.58;;;;;;;;;;5003382;28;20022;-56
2023/05/11 00:37:13;;;;;;;45.80;41.92;;;;;;;;;;5003867;28;20035;-59
2023/05/11 00:39:39;;;;;;;46.38;42.47;;;;;;;;;;5003413;28;20121;-57
2023/05/11 00:42:06;;;;;;;44.45;40.63;;;;;;;;;;5003592;28;20046;-57
2023/05/11 00:44:32;;;;;;;44.15;40.45;;;;;;;;;;5003076;28;20105;-56
2023/05/11 00:46:58;;;;;;;43.90;40.30;;;;;;;;;;5001053;28;20033;-57
2023/05/11 00:49:24;;;;;;;44.15;40.33;;;;;;;;;;5002431;28;20026;-57
2023/05/11 00:51:50;;;;;;;43.35;39.95;;;;;;;;;;5002858;28;20049;-60
2023/05/11 00:54:16;;;;;;;45.83;42.25;;;;;;;;;;5002721;28;20032;-56
2023/05/11 00:56:42;;;;;;;46.63;43.00;;;;;;;;;;5002174;28;20054;-55
2023/05/11 00:59:08;;;;;;;45.30;41.92;;;;;;;;;;5003462;28;20027;-58
2023/05/11 01:01:34;;;;;;;45.78;42.17;;;;;;;;;;5002794;28;20022;-58
2023/05/11 01:04:01;;;;;;;45.30;41.50;;;;;;;;;;5003800;28;20109;-57
2023/05/11 01:06:31;;;;;;;43.90;40.28;;;;;;;;;;5003620;28;20074;-60
2023/05/11 01:09:07;;;;;;;44.40;40.83;;;;;;;;;;5003285;28;20034;-59
2023/05/11 01:11:39;;;;;;;44.30;40.55;;;;;;;;;;5003686;28;20061;-58
2023/05/11 01:14:14;;;;;;;43.78;39.95;;;;;;;;;;5003104;28;20094;-58
2023/05/11 01:16:41;;;;;;;44.58;40.85;;;;;;;;;;5003369;28;20069;-59
2023/05/11 01:19:12;;;;;;;44.42;40.80;;;;;;;;;;5003435;28;20045;-59
2023/05/11 01:21:39;;;;;;;44.83;40.92;;;;;;;;;;5002583;28;20129;-58
2023/05/11 01:24:07;;;;;;;45.33;41.65;;;;;;;;;;5002971;28;20022;-58
2023/05/11 01:26:36;;;;;;;43.75;39.70;;;;;;;;;;5000821;28;20027;-55
2023/05/11 01:29:25;;;;;;;42.65;39.25;;;;;;;;;;5003356;28;20031;-61
2023/05/11 01:31:53;;;;;;;44.65;40.95;;;;;;;;;;4994635;28;20041;-56
2023/05/11 01:34:22;;;;;;;42.70;39.17;;;;;;;;;;5003043;28;20022;-58
2023/05/11 01:36:50;;;;;;;43.80;40.20;;;;;;;;;;5002580;28;20050;-56
2023/05/11 01:39:16;;;;;;;;;;;;;;;;;;5002497;28;20066;-60
2023/05/11 01:41:44;;;;;;;42.28;38.60;;;;;;;;;;4999619;28;19906;-58
2023/05/11 01:44:11;;;;;;;41.70;38.22;;;;;;;;;;5000955;28;20130;-61
2023/05/11 01:46:38;;;;;;;44.50;40.85;;;;;;;;;;4997921;28;20023;-58
2023/05/11 01:49:06;;;;;;;43.03;39.50;;;;;;;;;;4999819;28;20019;-56
2023/05/11 01:51:39;;;;;;;41.95;38.15;;;;;;;;;;4999922;28;20045;-58
2023/05/11 01:54:06;;;;;;;43.53;39.63;;;;;;;;;;4999886;28;20018;-57
2023/05/11 01:56:33;;;;;;;42.85;38.85;;;;;;;;;;4999099;28;20034;-60
2023/05/11 01:59:00;;;;;;;43.67;39.78;;;;;;;;;;4999305;28;20026;-60
2023/05/11 02:01:27;;;;;;;43.95;40.05;;;;;;;;;;4998851;28;20018;-55
2023/05/11 02:03:53;;;;;;;44.53;40.42;;;;;;;;;;4998628;28;20027;-56
2023/05/11 02:06:22;;;;;;;45.05;40.92;;;;;;;;;;4999401;28;20026;-58
2023/05/11 02:08:48;;;;;;;45.63;41.25;;;;;;;;;;4998491;28;20510;-60
2023/05/11 02:11:15;;;;;;;47.10;42.55;;;;;;;;;;4997959;28;20048;-54
2023/05/11 02:13:43;;;;;;;45.70;41.55;;;;;;;;;;4997927;28;20111;-57
2023/05/11 02:16:10;;;;;;;45.90;41.45;;;;;;;;;;4999726;28;20080;-58
2023/05/11 02:18:38;;;;;;;44.95;40.65;;;;;;;;;;5000086;28;20073;-54
2023/05/11 02:21:04;;;;;;;;;;;;;;;;;;5000925;28;20030;-60
2023/05/11 02:23:32;;;;;;;45.33;40.85;;;;;;;;;;4995692;28;19906;-52
2023/05/11 02:25:58;;;;;;;45.37;40.67;;;;;;;;;;4996191;28;20029;-57
2023/05/11 02:28:24;;;;;;;44.10;40.08;;;;;;;;;;4994766;28;20038;-57
2023/05/11 02:30:52;;;;;;;44.45;40.45;;;;;;;;;;4995753;28;20146;-57
2023/05/11 02:33:25;;;;;;;42.72;38.88;;;;;;;;;;4998400;28;20041;-51
2023/05/11 02:35:53;;;;;;;45.22;40.97;;;;;;;;;;4998114;28;20434;-59
2023/05/11 02:38:19;;;;;;;44.85;40.80;;;;;;;;;;4998461;28;20022;-55
2023/05/11 02:40:47;;;;;;;44.80;40.58;;;;;;;;;;4998732;28;20029;-58
2023/05/11 02:43:14;;;;;;;45.65;41.25;;;;;;;;;;4998897;28;20049;-58
2023/05/11 02:45:43;;;;;;;48.15;43.65;;;;;;;;;;4997451;28;20117;-52
2023/05/11 02:48:10;;;;;;;49.53;44.95;;;;;;;;;;4999130;28;20033;-57
2023/05/11 02:50:38;;;;;;;47.60;42.95;;;;;;;;;;5002600;28;20035;-59
2023/05/11 02:53:06;;;;;;;49.20;44.08;;;;;;;;;;5003839;28;20073;-57
2023/05/11 02:55:32;;;;;;;49.30;44.47;;;;;;;;;;5003043;28;20027;-55
2023/05/11 02:57:58;;;;;;;48.67;43.97;;;;;;;;;;5003571;28;20293;-57
2023/05/11 03:00:24;;;;;;;48.83;44.08;;;;;;;;;;5001445;28;20027;-58
2023/05/11 03:02:50;;;;;;;48.33;43.80;;;;;;;;;;5001829;28;20148;-58
2023/05/11 03:05:16;;;;;;;50.33;45.33;;;;;;;;;;5001991;28;20598;-59
2023/05/11 03:07:42;;;;;;;50.42;45.30;;;;;;;;;;5001717;28;20185;-58
2023/05/11 03:10:09;;;;;;;48.60;43.75;;;;;;;;;;5002996;28;20022;-56
2023/05/11 03:12:35;;;;;;;50.05;44.80;;;;;;;;;;5002540;28;20041;-56
2023/05/11 03:15:03;;;;;;;52.55;46.85;;;;;;;;;;5001858;28;20029;-56
2023/05/11 03:17:29;;;;;;;51.10;45.85;;;;;;;;;;5001522;28;20035;-58
2023/05/11 03:19:56;;;;;;;53.20;47.63;;;;;;;;;;5002472;28;20026;-59
2023/05/11 03:22:22;;;;;;;52.92;47.15;;;;;;;;;;5003569;28;20030;-57
2023/05/11 03:24:49;;;;;;;51.47;45.88;;;;;;;;;;5003802;28;20030;-59
2023/05/11 03:27:16;;;;;;;51.65;46.10;;;;;;;;;;5003887;28;20114;-61
2023/05/11 03:29:43;;;;;;;51.38;46.22;;;;;;;;;;5004385;28;20053;-61
2023/05/11 03:32:09;;;;;;;54.20;47.80;;;;;;;;;;5003532;28;20037;-59
2023/05/11 03:34:35;;;;;;;50.70;45.40;;;;;;;;;;5003481;28;20030;-57
2023/05/11 03:37:01;;;;;;;52.88;47.65;;;;;;;;;;5002875;28;20096;-57
2023/05/11 03:39:30;;;;;;;53.28;45.78;;;;;;;;;;5003591;28;20371;-63
2023/05/11 03:41:56;;;;;;;52.42;47.00;;;;;;;;;;5004264;28;20026;-60
2023/05/11 03:44:23;;;;;;;54.17;48.65;;;;;;;;;;5004382;28;20072;-58
2023/05/11 03:46:49;;;;;;;54.92;46.78;;;;;;;;;;5004464;28;20026;-55
2023/05/11 03:49:16;;;;;;;53.67;47.92;;;;;;;;;;5003705;28;20098;-54
2023/05/11 03:51:42;;;;;;;54.70;48.10;;;;;;;;;;5004079;28;20037;-58
2023/05/11 03:54:08;;;;;;;54.25;48.50;;;;;;;;;;5002268;28;20019;-57
2023/05/11 03:56:37;;;;;;;54.35;47.47;;;;;;;;;;5003301;28;20023;-57
2023/05/11 03:59:03;;;;;;;51.95;46.67;;;;;;;;;;5001558;28;20030;-61
2023/05/11 04:01:31;;;;;;;50.85;45.65;;;;;;;;;;4999829;28;20505;-58
2023/05/11 04:03:57;;;;;;;51.63;46.05;;;;;;;;;;4999472;28;20116;-60
2023/05/11 04:06:23;;;;;;;52.97;47.30;;;;;;;;;;5000184;28;20130;-60
2023/05/11 04:08:49;;;;;;;51.83;46.40;;;;;;;;;;5001868;28;20108;-61
2023/05/11 04:11:15;;;;;;;52.10;46.78;;;;;;;;;;5001410;28;20532;-59
2023/05/11 04:13:41;;;;;;;51.25;46.03;;;;;;;;;;5000359;28;20037;-61
2023/05/11 04:16:07;;;;;;;50.75;45.20;;;;;;;;;;5000818;28;20030;-58
2023/05/11 04:18:33;;;;;;;49.90;44.83;;;;;;;;;;5000191;28;20029;-62
2023/05/11 04:21:00;;;;;;;50.60;45.17;;;;;;;;;;5001659;28;20038;-57
2023/05/11 04:23:26;;;;;;;51.45;45.78;;;;;;;;;;5002031;28;20033;-60
2023/05/11 04:25:53;;;;;;;50.25;45.03;;;;;;;;;;5001394;28;20030;-58
2023/05/11 04:28:19;;;;;;;50.25;44.95;;;;;;;;;;5001427;28;20042;-56
2023/05/11 04:30:45;;;;;;;50.63;45.10;;;;;;;;;;5001843;28;20105;-56
2023/05/11 04:33:13;;;;;;;50.28;44.78;;;;;;;;;;5001646;28;20030;-56
2023/05/11 04:35:39;;;;;;;50.38;44.97;;;;;;;;;;5001720;28;20025;-59
2023/05/11 04:38:06;;;;;;;49.13;43.88;;;;;;;;;;5001950;28;20081;-60
2023/05/11 04:40:32;;;;;;;50.25;43.30;;;;;;;;;;5001481;28;20038;-56
2023/05/11 04:42:58;;;;;;;49.10;44.10;;;;;;;;;;5000383;28;20053;-58
2023/05/11 04:45:24;;;;;;;48.67;41.53;;;;;;;;;;5001617;28;20061;-58
2023/05/11 04:47:50;;;;;;;49.47;44.38;;;;;;;;;;5000756;28;20042;-59
2023/05/11 04:50:16;;;;;;;48.55;43.63;;;;;;;;;;5001002;28;20037;-59
2023/05/11 04:52:42;;;;;;;47.10;41.92;;;;;;;;;;4999405;28;20030;-61
2023/05/11 04:55:08;;;;;;;47.70;42.78;;;;;;;;;;4993668;28;20092;-62
2023/05/11 04:57:34;;;;;;;46.13;41.08;;;;;;;;;;4993473;28;20041;-59
2023/05/11 05:00:00;;;;;;;49.42;43.17;;;;;;;;;;4999507;28;20022;-59
2023/05/11 05:02:26;;;;;;;46.33;41.38;;;;;;;;;;5001163;28;20046;-52
2023/05/11 05:04:52;;;;;;;47.95;42.90;;;;;;;;;;4981831;28;20387;-57
2023/05/11 05:07:18;;;;;;;46.83;41.40;;;;;;;;;;4980037;28;20090;-60
2023/05/11 05:09:44;;;;;;;47.60;42.55;;;;;;;;;;4979999;28;20077;-59
2023/05/11 05:12:10;;;;;;;45.67;40.80;;;;;;;;;;4987389;28;20018;-57
2023/05/11 05:14:36;;;;;;;46.38;41.13;;;;;;;;;;5000211;28;20037;-57
2023/05/11 05:17:02;;;;;;;46.22;41.33;;;;;;;;;;5000538;28;20031;-57
2023/05/11 05:19:28;;;;;;;51.17;41.83;;;;;;;;;;4998791;28;20023;-60
2023/05/11 05:21:54;;;;;;;46.17;41.03;;;;;;;;;;5001202;28;20046;-60
2023/05/11 05:24:20;;;;;;;45.17;40.33;;;;;;;;;;5000470;28;20447;-61
2023/05/11 05:26:46;;;;;;;45.28;40.38;;;;;;;;;;4999943;28;20068;-60
2023/05/11 05:29:12;;;;;;;44.70;39.78;;;;;;;;;;5039712;22;20084;-60
2023/05/11 05:31:38;;;;;;;43.85;39.30;;;;;;;;;;5014139;28;20025;-59
2023/05/11 05:34:04;;;;;;;44.53;39.80;;;;;;;;;;5031719;28;20014;-61
2023/05/11 05:36:31;;;;;;;43.85;38.33;;;;;;;;;;5031423;28;20030;-59
2023/05/11 05:38:57;;;;;;;45.22;39.97;;;;;;;;;;5014114;28;20389;-58
2023/05/11 05:41:23;;;;;;;41.60;37.10;;;;;;;;;;5031676;28;20025;-59
2023/05/11 05:43:50;;;;;;;43.53;37.10;;;;;;;;;;5013266;28;20029;-57
2023/05/11 05:46:17;;;;;;;44.08;36.85;;;;;;;;;;5011227;28;20048;-57
2023/05/11 05:48:43;;;;;;;44.95;37.25;;;;;;;;;;4993864;28;20025;-60
2023/05/11 05:51:09;;;;;;;40.17;35.92;;;;;;;;;;4994060;28;20040;-59
2023/05/11 05:53:36;;;;;;;40.92;35.90;;;;;;;;;;5010900;28;20104;-57
2023/05/11 05:56:02;;;;;;;41.17;36.30;;;;;;;;;;5010773;28;20025;-60
2023/05/11 05:58:28;;;;;;;42.15;36.05;;;;;;;;;;5010982;28;20026;-59
2023/05/11 06:00:55;;;;;;;40.58;36.13;;;;;;;;;;4993846;28;20080;-57
2023/05/11 06:03:20;;;;;;;41.78;34.17;;;;;;;;;;5010979;28;20033;-58
2023/05/11 06:05:46;;;;;;;42.42;33.95;;;;;;;;;;5011386;28;20026;-59
2023/05/11 06:08:12;;;;;;;37.45;33.35;;;;;;;;;;5011386;28;20084;-58
2023/05/11 06:10:38;;;;;;;37.88;33.83;;;;;;;;;;5011433;28;20030;-53
2023/05/11 06:13:04;;;;;;;38.38;34.38;;;;;;;;;;4993658;28;20553;-56
2023/05/11 06:15:31;;;;;;;38.22;33.08;;;;;;;;;;5010576;28;20034;-56
2023/05/11 06:17:57;;;;;;;38.58;33.63;;;;;;;;;;5011599;28;20026;-56
2023/05/11 06:20:23;;;;;;;37.17;33.10;;;;;;;;;;4994097;28;20460;-58
2023/05/11 06:22:49;;;;;;;38.58;32.65;;;;;;;;;;4994056;28;20026;-60
2023/05/11 06:25:15;;;;;;;35.30;30.73;;;;;;;;;;5014865;28;20402;-59
2023/05/11 06:27:41;;;;;;;35.17;30.00;;;;;;;;;;5015297;28;20129;-57
2023/05/11 06:30:07;;;;;;;30.15;24.17;;;;;;;;;;5025551;28;20498;-58
2023/05/11 06:32:33;;;;;;;31.33;26.17;;;;;;;;;;5035120;28;20067;-59
2023/05/11 06:34:59;;;;;;;33.00;26.15;;;;;;;;;;5016733;28;20025;-59
2023/05/11 06:37:25;;;;;;;31.00;25.48;;;;;;;;;;5035114;28;20028;-59
2023/05/11 06:39:51;;;;;;;31.23;25.92;;;;;;;;;;5017428;28;20017;-60
2023/05/11 06:42:17;;;;;;;31.85;25.05;;;;;;;;;;5034782;28;20497;-59
2023/05/11 06:44:43;;;;;;;31.77;24.88;;;;;;;;;;5016948;28;20072;-56
2023/05/11 06:47:09;;;;;;;30.77;23.35;;;;;;;;;;5017136;28;20164;-52
2023/05/11 06:49:35;;;;;;;30.70;21.70;;;;;;;;;;5034853;28;20025;-56
2023/05/11 06:52:01;;;;;;;27.35;21.98;;;;;;;;;;5034897;28;20549;-61
2023/05/11 06:54:27;;;;;;;29.27;23.02;;;;;;;;;;5016184;28;20114;-60
2023/05/11 06:56:53;;;;;;;29.45;22.33;;;;;;;;;;5019398;28;20401;-58
2023/05/11 06:59:19;;;;;;;32.08;24.45;;;;;;;;;;4993653;28;20026;-57
2023/05/11 07:01:45;;;;;;;32.83;24.45;;;;;;;;;;4996512;28;20053;-59
2023/05/11 07:04:11;;;;;;;35.63;25.42;;;;;;;;;;5014681;28;20026;-60
2023/05/11 07:06:37;;;;;;;33.97;23.58;;;;;;;;;;5014948;28;20116;-58
2023/05/11 07:09:03;;;;;;;30.88;24.83;;;;;;;;;;4996909;28;20018;-56
2023/05/11 07:11:31;;;;;;;33.15;25.17;;;;;;;;;;4997062;28;20053;-58
2023/05/11 07:13:57;;;;;;;31.38;24.60;;;;;;;;;;5007511;28;20088;-58
2023/05/11 07:16:23;;;;;;;32.22;24.35;;;;;;;;;;5014207;28;20029;-56
2023/05/11 07:18:49;;;;;;;31.85;24.35;;;;;;;;;;5013740;28;20037;-59
2023/05/11 07:21:15;;;;;;;30.23;23.95;;;;;;;;;;5014020;28;20379;-57
2023/05/11 07:23:41;;;;;;;36.05;24.27;;;;;;;;;;4995419;28;20026;-57
2023/05/11 07:26:08;;;;;;;30.75;22.55;;;;;;;;;;5024611;28;20018;-58
2023/05/11 07:28:37;;;;;;;31.50;23.23;;;;;;;;;;5033407;28;20553;-58
2023/05/11 07:31:03;;;;;;;32.88;22.40;;;;;;;;;;5005975;28;20044;-59
2023/05/11 07:33:29;;;;;;;29.25;21.48;;;;;;;;;;5016571;28;20083;-58
2023/05/11 07:35:55;;;;;;;31.52;22.77;;;;;;;;;;5015410;28;20045;-59
2023/05/11 07:38:21;;;;;;;31.48;22.77;;;;;;;;;;5033950;28;20452;-58
2023/05/11 07:40:47;;;;;;;30.02;21.23;;;;;;;;;;5016592;28;20486;-57
2023/05/11 07:43:13;;;;;;;31.08;22.15;;;;;;;;;;5015764;28;20028;-59
2023/05/11 07:45:39;;;;;;;28.13;21.08;;;;;;;;;;5034139;28;20115;-59
2023/05/11 07:48:05;;;;;;;29.42;21.88;;;;;;;;;;5033801;28;20036;-58
2023/05/11 07:50:31;;;;;;;31.05;21.73;;;;;;;;;;5033690;28;20025;-58
2023/05/11 07:52:57;;;;;;;29.45;21.77;;;;;;;;;;5033359;28;20441;-60
2023/05/11 07:55:29;;;;;;;29.92;21.33;;;;;;;;;;5030591;28;20109;-59
2023/05/11 07:57:55;;;;;;;29.73;21.38;;;;;;;;;;5014084;28;20022;-60
2023/05/11 08:00:21;;;;;;;30.55;21.08;;;;;;;;;;5013834;28;20091;-59
2023/05/11 08:02:47;;;;;;;28.67;19.73;;;;;;;;;;4996430;28;20021;-59
2023/05/11 08:05:13;;;;;;;27.70;19.20;;;;;;;;;;5013414;28;20029;-59
2023/05/11 08:07:39;;;;;;;26.23;19.25;;;;;;;;;;5013622;28;20025;-57
2023/05/11 08:10:06;;;;;;;25.42;18.65;;;;;;;;;;4996211;28;20069;-58
2023/05/11 08:12:32;;;;;;;26.90;17.65;;;;;;;;;;5013759;28;20038;-61
2023/05/11 08:14:58;;;;;;;24.17;17.90;;;;;;;;;;5013250;28;20033;-63
2023/05/11 08:17:24;;;;;;;30.30;22.02;;;;;;;;;;5013589;28;20030;-61
2023/05/11 08:19:51;;;;;;;25.88;18.35;;;;;;;;;;5013605;28;20018;-63
2023/05/11 08:22:17;;;;;;;24.00;16.40;;;;;;;;;;5013382;28;20502;-64
2023/05/11 08:24:43;;;;;;;26.23;17.88;;;;;;;;;;5012982;28;20076;-63
2023/05/11 08:27:09;;;;;;;24.58;16.35;;;;;;;;;;5013446;28;20018;-63
2023/05/11 08:29:35;;;;;;;25.73;15.80;;;;;;;;;;4995604;28;20026;-64
2023/05/11 08:32:01;;;;;;;23.67;16.48;;;;;;;;;;5013557;28;20172;-63
2023/05/11 08:34:27;;;;;;;24.02;16.08;;;;;;;;;;5012957;28;20025;-67
2023/05/11 08:36:54;;;;;;;23.60;16.60;;;;;;;;;;5013332;28;20093;-65
2023/05/11 08:39:21;;;;;;;25.08;16.20;;;;;;;;;;5013036;28;20084;-66
2023/05/11 08:41:48;;;;;;;22.17;15.50;;;;;;;;;;5013380;28;20030;-65
2023/05/11 08:44:15;;;;;;;25.42;17.92;;;;;;;;;;5013144;28;20109;-66
2023/05/11 08:46:43;;;;;;;22.38;16.02;;;;;;;;;;4994815;28;20034;-62
2023/05/11 08:49:09;;;;;;;24.83;16.42;;;;;;;;;;5012487;28;20048;-63
2023/05/11 08:51:35;;;;;;;23.20;16.05;;;;;;;;;;5012917;28;20478;-63
2023/05/11 08:54:02;;;;;;;21.52;15.57;;;;;;;;;;5012543;28;20026;-63
2023/05/11 08:56:29;;;;;;;22.98;15.38;;;;;;;;;;5012739;28;20452;-63
2023/05/11 08:58:55;;;;;;;23.10;15.98;;;;;;;;;;5012799;28;20053;-63
2023/05/11 09:01:22;;;;;;;24.17;15.70;;;;;;;;;;5012639;28;20046;-65
2023/05/11 09:03:49;;;;;;;22.02;16.13;;;;;;;;;;4995055;28;20490;-63
2023/05/11 09:06:16;;;;;;;21.85;15.45;;;;;;;;;;4994681;28;20057;-63
2023/05/11 09:08:43;;;;;;;21.05;13.10;;;;;;;;;;4995064;28;20561;-64
2023/05/11 09:11:10;;;;;;;19.55;12.40;;;;;;;;;;4994896;28;20041;-64
2023/05/11 09:13:36;;;;;;;19.55;13.13;;;;;;;;;;5012507;28;20026;-64
2023/05/11 09:16:02;;;;;;;18.13;10.65;;;;;;;;;;5011937;28;20049;-63
2023/05/11 09:18:28;;;;;;;17.23;10.60;;;;;;;;;;5012245;28;20105;-63
2023/05/11 09:20:54;;;;;;;16.45;10.30;;;;;;;;;;5012303;28;20486;-63
2023/05/11 09:23:27;;;;;;;17.30;9.68;;;;;;;;;;5011839;28;20026;-63
2023/05/11 09:25:53;;;;;;;15.98;8.90;;;;;;;;;;4994236;28;20065;-64
2023/05/11 09:28:26;;;;;;;15.30;9.40;;;;;;;;;;4994649;28;20033;-63
2023/05/11 09:30:52;;;;;;;15.52;8.63;;;;;;;;;;4995296;28;20026;-64
2023/05/11 09:33:25;;;;;;;16.10;9.20;;;;;;;;;;5012385;28;20056;-64
2023/05/11 09:35:51;;;;;;;14.90;8.57;;;;;;;;;;4994091;28;20029;-63
2023/05/11 09:38:21;;;;;;;18.58;9.23;;;;;;;;;;4994502;28;20057;-63
2023/05/11 09:40:52;;;;;;;15.18;8.90;;;;;;;;;;5012365;28;20018;-63
2023/05/11 09:43:18;;;;;;;14.50;8.90;;;;;;;;;;5012113;28;20033;-63
2023/05/11 09:45:45;;;;;;;16.15;10.02;;;;;;;;;;5011705;28;20026;-64
2023/05/11 09:48:20;;;;;;;19.05;9.25;;;;;;;;;;4994210;28;20022;-64
2023/05/11 09:50:47;;;;;;;15.57;8.90;;;;;;;;;;5011789;28;20393;-63
2023/05/11 09:53:13;;;;;;;16.42;9.15;;;;;;;;;;5011929;28;20021;-62
2023/05/11 09:55:50;;;;;;;16.15;9.32;;;;;;;;;;5011488;28;20044;-63
2023/05/11 09:58:16;;;;;;;14.52;8.88;;;;;;;;;;5011192;28;20042;-64
2023/05/11 10:00:50;;;;;;;18.30;9.57;;;;;;;;;;4994177;28;20026;-65
2023/05/11 10:03:16;;;;;;;15.90;9.95;;;;;;;;;;5011881;28;20025;-64
2023/05/11 10:05:55;;;;;;;15.65;8.98;;;;;;;;;;4994099;28;20033;-63
2023/05/11 10:08:26;;;;;;;15.45;9.80;;;;;;;;;;4993950;28;20053;-64
2023/05/11 10:10:53;;;;;;;16.17;10.15;;;;;;;;;;5011896;28;20056;-64
2023/05/11 10:13:20;;;;;;;15.45;9.88;;;;;;;;;;5011842;28;20231;-63
2023/05/11 10:15:49;;;;;;;15.52;9.15;;;;;;;;;;5011587;28;20069;-63
2023/05/11 10:18:15;;;;;;;;;;;;;;;;;;5012158;28;20014;-65
2023/05/11 10:20:41;;;;;;;15.57;9.80;;;;;;;;;;5011741;28;19913;-64
2023/05/11 10:23:07;;;;;;;15.70;9.07;;;;;;;;;;4993600;28;20140;-64
2023/05/11 10:25:33;;;;;;;15.50;9.90;;;;;;;;;;5011133;28;20026;-63
2023/05/11 10:27:59;;;;;;;16.00;9.98;;;;;;;;;;5011126;28;20030;-64
2023/05/11 10:30:26;;;;;;;17.35;9.48;;;;;;;;;;5011722;28;20335;-65
2023/05/11 10:32:53;;;;;;;15.00;9.02;;;;;;;;;;4993788;28;20026;-65
2023/05/11 10:35:20;;;;;;;15.48;9.38;;;;;;;;;;4993720;28;20037;-65
2023/05/11 10:37:47;;;;;;;20.17;10.60;;;;;;;;;;5011535;28;20026;-64
2023/05/11 10:40:13;;;;;;;15.88;9.30;;;;;;;;;;5011271;28;20280;-64
2023/05/11 10:42:42;;;;;;;19.80;9.00;;;;;;;;;;5010968;28;20070;-64
2023/05/11 10:45:26;;;;;;;16.92;9.48;;;;;;;;;;4993009;28;20034;-63
2023/05/11 10:47:53;;;;;;;15.65;8.93;;;;;;;;;;5011067;28;20018;-62
2023/05/11 10:50:22;;;;;;;16.15;8.70;;;;;;;;;;4993591;28;20030;-63
2023/05/11 10:52:51;;;;;;;15.40;8.60;;;;;;;;;;4993656;28;20026;-64
2023/05/11 10:55:26;;;;;;;14.93;8.75;;;;;;;;;;5010862;28;20087;-64
2023/05/11 10:57:51;;;;;;;15.18;8.73;;;;;;;;;;5011005;28;20025;-63
2023/05/11 11:00:17;;;;;;;14.35;8.07;;;;;;;;;;5011413;28;20093;-64
2023/05/11 11:02:44;;;;;;;15.15;8.85;;;;;;;;;;5011183;28;20109;-64
2023/05/11 11:05:14;;;;;;;16.10;9.00;;;;;;;;;;5011018;28;20026;-64
2023/05/11 11:07:59;;;;;;;17.13;8.57;;;;;;;;;;4993602;28;20026;-63
2023/05/11 11:10:31;;;;;;;16.67;9.52;;;;;;;;;;4994308;28;20033;-63
2023/05/11 11:13:02;;;;;;;14.95;8.70;;;;;;;;;;5015193;28;20034;-63
2023/05/11 11:15:48;;;;;;;17.52;10.25;;;;;;;;;;5014565;28;20025;-63
2023/05/11 11:18:19;;;;;;;14.90;8.32;;;;;;;;;;5014556;28;20030;-63
2023/05/11 11:20:46;;;;;;;15.70;8.70;;;;;;;;;;4996575;28;20490;-63
2023/05/11 11:23:32;;;;;;;15.15;8.38;;;;;;;;;;5014163;28;20037;-63
2023/05/11 11:25:59;;;;;;;15.25;9.13;;;;;;;;;;5014402;28;20030;-63
2023/05/11 11:28:25;;;;;;;15.82;8.40;;;;;;;;;;5033809;23;20073;-59
2023/05/11 11:31:10;;;;;;;15.80;8.63;;;;;;;;;;5036209;28;20036;-58
2023/05/11 11:33:36;;;;;;;16.55;9.18;;;;;;;;;;5036781;28;20032;-58
2023/05/11 11:36:02;;;;;;;17.38;10.20;;;;;;;;;;5034552;28;20029;-60
2023/05/11 11:38:28;;;;;;;16.02;8.77;;;;;;;;;;5036653;28;20026;-58
2023/05/11 11:40:55;;;;;;;17.58;10.32;;;;;;;;;;5036497;28;20018;-55
2023/05/11 11:43:25;;;;;;;15.63;8.57;;;;;;;;;;5036431;28;20104;-55
2023/05/11 11:46:01;;;;;;;15.23;8.57;;;;;;;;;;5036042;28;20366;-54
2023/05/11 11:48:30;;;;;;;15.68;9.60;;;;;;;;;;5036142;28;20095;-56
2023/05/11 11:51:02;;;;;;;18.70;9.02;;;;;;;;;;5036458;28;20053;-57
2023/05/11 11:53:42;;;;;;;14.85;8.95;;;;;;;;;;5037072;28;20108;-56
2023/05/11 11:56:28;;;;;;;15.18;8.93;;;;;;;;;;5036115;28;20056;-58
2023/05/11 11:59:04;;;;;;;15.40;9.07;;;;;;;;;;5038130;28;20402;-59
2023/05/11 12:07:53;;;;;;;15.23;9.48;;;;;;;;;;5012638;28;20055;-58
2023/05/11 12:10:20;;;;;;;15.98;8.90;;;;;;;;;;5016445;28;20109;-57
2023/05/11 12:12:47;;;;;;;15.50;8.70;;;;;;;;;;5036288;28;20014;-59
2023/05/11 12:15:26;;;;;;;15.50;9.30;;;;;;;;;;5035054;28;20039;-58
2023/05/11 12:17:52;;;;;;;15.88;8.60;;;;;;;;;;5033900;28;20501;-59
2023/05/11 12:20:19;;;;;;;15.73;9.95;;;;;;;;;;5035733;28;20041;-59
2023/05/11 12:22:47;;;;;;;15.52;9.20;;;;;;;;;;5034940;28;20280;-57
2023/05/11 12:25:14;;;;;;;;;;;;;;;;;;5036207;28;20026;-56
2023/05/11 12:27:49;;;;;;;15.48;9.23;;;;;;;;;;5036899;28;19905;-58
2023/05/11 12:30:20;;;;;;;15.25;9.25;;;;;;;;;;5036853;28;20041;-62
2023/05/11 12:32:46;;;;;;;15.35;9.35;;;;;;;;;;5039546;28;20036;-59
2023/05/11 12:35:12;;;;;;;15.27;9.07;;;;;;;;;;5039793;28;20033;-60
2023/05/11 12:38:04;;;;;;;17.25;9.40;;;;;;;;;;5038047;28;20509;-59
2023/05/11 12:40:30;;;;;;;15.68;9.10;;;;;;;;;;5036653;28;20131;-59
2023/05/11 12:42:57;;;;;;;15.30;8.85;;;;;;;;;;5037029;28;20049;-58
2023/05/11 12:45:24;;;;;;;14.75;8.57;;;;;;;;;;5035110;28;20033;-56
2023/05/11 12:47:54;;;;;;;17.40;9.65;;;;;;;;;;5036081;28;20034;-59
2023/05/11 12:50:21;;;;;;;14.60;9.20;;;;;;;;;;5037379;28;20478;-58
2023/05/11 12:52:49;;;;;;;15.52;9.07;;;;;;;;;;5036673;28;20190;-57
2023/05/11 12:55:25;;;;;;;14.93;9.50;;;;;;;;;;5035993;28;20461;-58
2023/05/11 12:57:53;;;;;;;15.18;8.57;;;;;;;;;;5036581;28;20033;-56
2023/05/11 13:00:20;;;;;;;16.25;9.60;;;;;;;;;;5036724;28;20037;-55
2023/05/11 13:02:46;;;;;;;15.95;9.80;;;;;;;;;;5036576;28;20056;-54
2023/05/11 13:05:13;;;;;;;14.80;9.60;;;;;;;;;;5034981;28;20092;-56
2023/05/11 13:07:39;;;;;;;14.70;9.50;;;;;;;;;;5035465;28;20029;-59
2023/05/11 13:10:05;;;;;;;19.13;13.15;;;;;;;;;;5035027;28;20025;-57
2023/05/11 13:15:49;;;;;;;14.75;9.05;;;;;;;;;;5036028;28;20119;-55
2023/05/11 13:18:16;;;;;;;16.55;10.13;;;;;;;;;;5035579;28;20075;-58
2023/05/11 13:20:43;;;;;;;14.68;8.80;;;;;;;;;;5034989;28;20110;-60
2023/05/11 13:23:13;;;;;;;14.57;8.73;;;;;;;;;;5035153;28;20179;-58
2023/05/11 13:25:47;;;;;;;15.18;9.95;;;;;;;;;;5034907;28;20275;-57
2023/05/11 13:28:14;;;;;;;15.77;9.38;;;;;;;;;;5034031;28;20036;-58
2023/05/11 13:30:40;;;;;;;14.98;9.00;;;;;;;;;;5034508;28;20067;-58
2023/05/11 13:33:06;;;;;;;15.68;9.07;;;;;;;;;;5034748;28;20030;-61
2023/05/11 13:35:32;;;;;;;14.52;8.63;;;;;;;;;;5035256;28;20515;-60
2023/05/11 13:37:58;;;;;;;16.15;9.65;;;;;;;;;;5035142;28;20178;-58
2023/05/11 13:40:24;;;;;;;15.68;9.63;;;;;;;;;;5031556;28;20033;-59
2023/05/11 13:42:50;;;;;;;16.77;9.10;;;;;;;;;;5028436;28;20021;-59
2023/05/11 13:45:16;;;;;;;15.02;8.75;;;;;;;;;;5027302;28;20104;-59
2023/05/11 13:47:42;;;;;;;15.05;8.48;;;;;;;;;;5016499;28;20061;-58
2023/05/11 13:50:09;;;;;;;16.08;9.20;;;;;;;;;;5029196;28;20036;-59
2023/05/11 13:52:36;;;;;;;15.07;8.98;;;;;;;;;;5032980;28;20401;-59
2023/05/11 13:55:02;;;;;;;15.52;9.30;;;;;;;;;;5028238;28;20473;-59
2023/05/11 13:57:28;;;;;;;15.60;9.40;;;;;;;;;;5034530;28;20048;-56
2023/05/11 13:59:55;;;;;;;15.93;8.77;;;;;;;;;;5034035;28;20068;-59
2023/05/11 14:02:21;;;;;;;16.45;10.30;;;;;;;;;;5033260;28;20025;-59
2023/05/11 14:04:47;;;;;;;14.70;8.55;;;;;;;;;;5034195;28;20029;-58
2023/05/11 14:07:14;;;;;;;15.80;9.35;;;;;;;;;;5034902;28;20017;-53
2023/05/11 14:09:42;;;;;;;15.63;9.63;;;;;;;;;;5034506;28;20066;-60
2023/05/11 14:12:08;;;;;;;15.77;9.45;;;;;;;;;;5034783;28;20469;-58
2023/05/11 14:14:34;;;;;;;15.75;8.80;;;;;;;;;;5031127;28;20030;-59
2023/05/11 14:17:00;;;;;;;17.15;9.27;;;;;;;;;;5034556;28;20021;-58
2023/05/11 14:19:26;;;;;;;15.77;9.00;;;;;;;;;;5034041;28;20029;-57
2023/05/11 14:21:52;;;;;;;16.20;9.90;;;;;;;;;;5034314;28;20018;-55
2023/05/11 14:24:19;;;;;;;16.15;9.55;;;;;;;;;;5032005;28;20423;-59
2023/05/11 14:26:45;;;;;;;18.08;9.10;;;;;;;;;;5032726;28;20032;-58
2023/05/11 14:29:11;;;;;;;17.52;9.73;;;;;;;;;;5034382;28;20124;-56
2023/05/11 14:31:37;;;;;;;16.50;9.55;;;;;;;;;;5032857;28;20545;-54
2023/05/11 14:34:04;;;;;;;16.70;9.98;;;;;;;;;;5032341;28;20079;-58